Archival Weather

Norman Y Mineta San Jose Intl

San Jose, California (KSJC)

Report from: Wednesday, January 31, 2024 12:53 AM PST
Current time: Monday, June 24, 2024 4:26 AM PDT

Current weather – Weather history – Daily summaries
Weather forecast

Temperature15.0°C (59.0°F)
Dew point7.8°C (46.0°F)
Winds 6 kts (3.1 m/s, 6.9 mph) Southeast (140°)
Visibility10 mi. (16.1 km)
Clouds Sky clear
Altimeter29.89 in.Hg (1012 mB)
Relative humidity62 %
Density altitude191 ft. (58 m)
Sea-level pressure101.2 kPa (1012 mB, 29.89 in.Hg)
Remarks Fully automated report
System requires maintenance
Automated weather observing station with precipitation discriminator
Pressure falling more quickly
Flight conditions Visual Meteorological Conditions
Raw dataKSJC 310853Z AUTO 14006KT 10SM CLR 15/08 A2989 RMK AO2 SLP121 T01500078 58008 $
An error has occurred. This application may no longer respond until reloaded. Reload 🗙